Terminal Aerodrome Forecast
Issued by NWS

Home | Current Version | Previous Version | Text Only | Print | Product List | Glossary On
Versions: 1 2 3 4 5 6 7 8 9 10 11 12 13 14
000
FTUS45 KGJT 250541
TAFASE
TAF
KASE 250541Z 2506/2606 18005KT P6SM VCSH BKN090
      TEMPO 2509/2513 19004KT P6SM -SHRA BKN070
     FM251800 17006KT P6SM VCTS BKN060CB
     FM252100 33006KT P6SM -SHRA VCTS BKN050CB
     FM260000 23004KT P6SM BKN060=

USA.gov is the U.S. government's official web portal to all federal, state and local government web resources and services.